createdAt,value
2018-03-04T00:00:33.330Z,77.10
2018-03-04T00:03:01.667Z,76.90
2018-03-04T00:05:29.273Z,76.90
2018-03-04T00:07:56.830Z,76.50
2018-03-04T00:10:24.394Z,76.40
2018-03-04T00:12:52.057Z,76.80
2018-03-04T00:15:19.680Z,76.70
2018-03-04T00:17:48.146Z,76.90
2018-03-04T00:20:16.207Z,77.30
2018-03-04T00:22:43.819Z,77.60
2018-03-04T00:25:11.457Z,77.70
2018-03-04T00:27:39.490Z,77.60
2018-03-04T00:30:07.049Z,77.70
2018-03-04T00:32:34.669Z,77.40
2018-03-04T00:35:02.290Z,77.50
2018-03-04T00:37:30.620Z,77.70
2018-03-04T00:39:58.303Z,78.00
2018-03-04T00:42:26.664Z,78.50
2018-03-04T00:44:55.027Z,78.70
2018-03-04T00:47:24.371Z,79.00
2018-03-04T00:49:52.769Z,79.10
2018-03-04T00:52:20.356Z,79.00
2018-03-04T00:54:48.326Z,79.30
2018-03-04T00:57:16.972Z,79.10
2018-03-04T00:59:44.533Z,79.60
2018-03-04T01:02:12.123Z,79.40
2018-03-04T01:04:39.720Z,79.60
2018-03-04T01:07:07.326Z,79.80
2018-03-04T01:09:34.944Z,79.20
2018-03-04T01:12:03.305Z,79.50
2018-03-04T01:14:30.906Z,79.50
2018-03-04T01:16:58.491Z,79.40
2018-03-04T01:19:26.032Z,79.30
2018-03-04T01:21:53.637Z,79.10
2018-03-04T01:24:21.207Z,79.00
2018-03-04T01:26:48.909Z,78.70
2018-03-04T01:29:17.027Z,78.60
2018-03-04T01:31:44.588Z,78.50
2018-03-04T01:34:12.188Z,78.50
2018-03-04T01:36:40.517Z,78.70
2018-03-04T01:39:08.171Z,78.70
2018-03-04T01:41:35.741Z,78.90
2018-03-04T01:44:04.101Z,78.30
2018-03-04T01:46:32.464Z,78.50
2018-03-04T01:49:01.212Z,78.50
2018-03-04T01:51:41.255Z,78.30
2018-03-04T01:54:08.907Z,78.30
2018-03-04T01:56:37.246Z,77.80
2018-03-04T01:59:04.811Z,77.80
2018-03-04T02:01:32.424Z,77.80
2018-03-04T02:04:00.017Z,77.40
2018-03-04T02:06:27.613Z,77.10
2018-03-04T02:08:55.168Z,77.40
2018-03-04T02:11:23.611Z,76.60
2018-03-04T02:13:51.184Z,76.70
2018-03-04T02:16:18.777Z,76.40
2018-03-04T02:18:48.079Z,76.80
2018-03-04T02:21:16.246Z,76.80
2018-03-04T02:23:43.837Z,77.40
2018-03-04T02:26:11.401Z,77.50
2018-03-04T02:28:39.778Z,77.60
2018-03-04T02:31:07.357Z,77.60
2018-03-04T02:33:34.918Z,77.40
2018-03-04T02:36:02.543Z,77.30
2018-03-04T02:38:30.122Z,77.00
2018-03-04T02:40:57.741Z,77.20
2018-03-04T02:43:25.322Z,77.20
2018-03-04T02:45:52.933Z,77.00
2018-03-04T02:48:20.585Z,77.20
2018-03-04T02:50:48.397Z,77.60
2018-03-04T02:53:17.202Z,78.10
2018-03-04T02:55:44.758Z,78.00
2018-03-04T02:58:12.396Z,78.20
2018-03-04T03:00:39.967Z,78.40
2018-03-04T03:06:01.349Z,78.30
2018-03-04T03:08:28.949Z,78.60
2018-03-04T03:10:57.347Z,78.90
2018-03-04T03:13:24.952Z,78.90
2018-03-04T03:15:53.391Z,78.90
2018-03-04T03:18:20.955Z,79.00
2018-03-04T03:20:49.348Z,79.10
2018-03-04T03:23:17.623Z,79.20
2018-03-04T03:25:45.216Z,79.10
2018-03-04T03:28:14.620Z,79.20
2018-03-04T03:30:42.222Z,79.20
2018-03-04T03:33:09.819Z,79.30
2018-03-04T03:35:37.407Z,79.60
2018-03-04T03:38:05.008Z,79.90
2018-03-04T03:40:32.566Z,79.80
2018-03-04T03:43:00.157Z,79.60
2018-03-04T03:45:28.506Z,79.60
2018-03-04T03:47:56.829Z,79.70
2018-03-04T03:50:25.236Z,79.60
2018-03-04T03:52:53.615Z,79.20
2018-03-04T03:55:21.953Z,78.90
2018-03-04T03:57:49.577Z,78.90
2018-03-04T04:00:17.918Z,78.60
2018-03-04T04:02:47.206Z,78.90
2018-03-04T04:05:14.802Z,78.30
2018-03-04T04:07:42.354Z,78.20
2018-03-04T04:10:09.951Z,78.10
2018-03-04T04:12:37.501Z,77.80
2018-03-04T04:15:05.867Z,77.30
2018-03-04T04:17:34.205Z,77.60
2018-03-04T04:20:01.854Z,77.60
2018-03-04T04:22:30.188Z,77.80
2018-03-04T04:24:57.825Z,77.80
2018-03-04T04:27:25.434Z,78.00
2018-03-04T04:29:53.814Z,78.30
2018-03-04T04:32:22.191Z,78.20
2018-03-04T04:34:49.807Z,78.10
2018-03-04T04:37:18.353Z,77.70
2018-03-04T04:39:47.327Z,77.90
2018-03-04T04:42:16.363Z,77.90
2018-03-04T04:44:43.968Z,77.90
2018-03-04T04:47:11.680Z,77.70
2018-03-04T04:49:39.236Z,77.70
2018-03-04T04:52:07.568Z,78.30
2018-03-04T04:54:35.931Z,78.50
2018-03-04T04:57:03.522Z,78.60
2018-03-04T04:59:31.875Z,78.30
2018-03-04T05:01:59.448Z,78.30
2018-03-04T05:04:27.036Z,78.00
2018-03-04T05:06:54.628Z,78.40
2018-03-04T05:09:22.545Z,78.30
2018-03-04T05:11:50.109Z,78.80
2018-03-04T05:14:17.683Z,78.50
2018-03-04T05:16:45.259Z,78.50
2018-03-04T05:19:12.884Z,79.10
2018-03-04T05:21:40.458Z,79.20
2018-03-04T05:24:08.042Z,79.00
2018-03-04T05:26:35.927Z,78.70
2018-03-04T05:29:04.995Z,79.30
2018-03-04T05:31:32.625Z,79.30
2018-03-04T05:34:00.238Z,79.70
2018-03-04T05:36:27.789Z,79.80
2018-03-04T05:38:55.375Z,79.80
2018-03-04T05:41:22.969Z,79.70
2018-03-04T05:43:50.535Z,79.80
2018-03-04T05:46:18.138Z,80.00
2018-03-04T05:48:45.749Z,80.10
2018-03-04T05:51:13.342Z,80.20
2018-03-04T05:53:40.888Z,80.30
2018-03-04T05:56:08.489Z,80.20
2018-03-04T05:58:36.620Z,80.30
2018-03-04T06:01:05.602Z,80.30
2018-03-04T06:03:33.289Z,80.30
2018-03-04T06:06:00.887Z,80.40
2018-03-04T06:08:28.673Z,80.70
2018-03-04T06:10:56.275Z,80.60
2018-03-04T06:13:24.017Z,80.50
2018-03-04T06:15:51.590Z,80.70
2018-03-04T06:18:19.221Z,80.50
2018-03-04T06:20:47.225Z,80.50
2018-03-04T06:23:15.770Z,80.10
2018-03-04T06:25:43.365Z,79.40
2018-03-04T06:28:11.724Z,79.40
2018-03-04T06:30:39.338Z,79.40
2018-03-04T06:33:07.210Z,79.30
2018-03-04T06:35:35.578Z,78.60
2018-03-04T06:38:03.203Z,78.10
2018-03-04T06:40:30.866Z,77.90
2018-03-04T06:42:58.466Z,77.80
2018-03-04T06:45:26.075Z,77.60
2018-03-04T06:47:54.871Z,77.80
2018-03-04T06:50:22.487Z,78.40
2018-03-04T06:52:50.122Z,77.70
2018-03-04T06:55:17.866Z,76.10
2018-03-04T06:57:45.445Z,75.10
2018-03-04T07:00:13.287Z,74.00
2018-03-04T07:02:40.925Z,73.70
2018-03-04T07:05:08.616Z,73.00
2018-03-04T07:07:36.763Z,71.70
2018-03-04T07:10:06.122Z,71.10
2018-03-04T07:12:33.726Z,71.20
2018-03-04T07:15:01.442Z,70.60
2018-03-04T07:17:29.763Z,69.40
2018-03-04T07:19:57.394Z,69.40
2018-03-04T07:22:25.004Z,69.40
2018-03-04T07:24:52.544Z,68.30
2018-03-04T07:27:20.957Z,66.90
2018-03-04T07:29:48.736Z,66.90
2018-03-04T07:32:17.074Z,64.90
2018-03-04T07:34:44.654Z,64.80
2018-03-04T07:37:13.039Z,64.40
2018-03-04T07:39:40.622Z,64.40
2018-03-04T07:42:08.200Z,63.00
2018-03-04T07:44:36.824Z,61.40
2018-03-04T07:47:04.909Z,60.00
2018-03-04T07:49:32.474Z,57.70
2018-03-04T07:52:00.101Z,57.90
2018-03-04T07:54:28.426Z,54.80
2018-03-04T07:56:56.005Z,54.70
2018-03-04T07:59:24.441Z,52.50
2018-03-04T08:01:52.780Z,53.10
2018-03-04T08:04:20.412Z,53.20
2018-03-04T08:06:47.973Z,53.20
2018-03-04T08:09:16.347Z,53.70
2018-03-04T08:11:43.882Z,53.70
2018-03-04T08:14:11.486Z,55.30
2018-03-04T08:16:39.083Z,56.80
2018-03-04T08:19:07.340Z,57.80
2018-03-04T08:21:35.696Z,58.30
2018-03-04T08:24:03.271Z,58.40
2018-03-04T08:26:43.356Z,56.40
2018-03-04T08:29:10.898Z,56.40
2018-03-04T08:31:38.641Z,52.00
2018-03-04T08:34:08.230Z,50.00
2018-03-04T08:36:36.488Z,49.30
2018-03-04T08:39:04.128Z,48.90
2018-03-04T08:41:31.718Z,49.10
2018-03-04T08:44:00.070Z,50.70
2018-03-04T08:46:27.636Z,50.70
2018-03-04T08:48:56.000Z,51.20
2018-03-04T08:51:24.327Z,52.60
2018-03-04T08:53:51.939Z,52.50
2018-03-04T08:56:19.542Z,52.20
2018-03-04T08:58:47.159Z,51.70
2018-03-04T09:01:14.743Z,51.00
2018-03-04T09:03:42.583Z,51.40
2018-03-04T09:06:10.628Z,51.50
2018-03-04T09:08:38.257Z,51.80
2018-03-04T09:11:07.989Z,52.90
2018-03-04T09:13:37.362Z,53.40
2018-03-04T09:16:06.814Z,53.50
2018-03-04T09:18:34.834Z,54.70
2018-03-04T09:21:02.438Z,53.70
2018-03-04T09:23:30.053Z,55.10
2018-03-04T09:25:57.674Z,56.10
2018-03-04T09:28:25.252Z,54.30
2018-03-04T09:30:52.872Z,54.50
2018-03-04T09:33:20.458Z,54.90
2018-03-04T09:35:48.104Z,53.60
2018-03-04T09:38:16.520Z,52.70
2018-03-04T09:40:44.407Z,52.70
2018-03-04T09:43:11.995Z,52.40
2018-03-04T09:45:39.581Z,52.10
2018-03-04T09:48:08.089Z,51.50
2018-03-04T09:50:35.942Z,51.50
2018-03-04T09:53:03.575Z,52.50
2018-03-04T09:55:31.926Z,51.20
2018-03-04T09:58:00.598Z,51.40
2018-03-04T10:00:29.413Z,51.20
2018-03-04T10:02:57.162Z,51.20
2018-03-04T10:05:24.772Z,49.50
2018-03-04T10:07:53.091Z,49.40
2018-03-04T10:10:20.662Z,49.50
2018-03-04T10:12:48.247Z,48.10
2018-03-04T10:15:16.812Z,51.00
2018-03-04T10:17:44.387Z,49.90
2018-03-04T10:20:11.959Z,49.60
2018-03-04T10:22:39.552Z,51.00
2018-03-04T10:25:07.131Z,50.60
2018-03-04T10:27:35.024Z,49.90
2018-03-04T10:30:02.644Z,49.50
2018-03-04T10:32:30.394Z,49.40
2018-03-04T10:34:58.019Z,49.40
2018-03-04T10:37:25.624Z,50.10
2018-03-04T10:39:53.296Z,51.00
2018-03-04T10:42:20.942Z,49.90
2018-03-04T10:44:48.518Z,50.10
2018-03-04T10:47:16.968Z,50.70
2018-03-04T10:49:44.601Z,50.80
2018-03-04T10:52:12.184Z,50.40
2018-03-04T10:54:41.855Z,50.80
2018-03-04T10:57:10.804Z,48.90
2018-03-04T10:59:38.444Z,47.40
2018-03-04T11:02:12.286Z,48.70
2018-03-04T11:04:39.933Z,49.10
2018-03-04T11:07:07.515Z,49.20
2018-03-04T11:09:36.064Z,48.70
2018-03-04T11:12:03.610Z,46.60
2018-03-04T11:14:31.300Z,46.20
2018-03-04T11:16:58.904Z,47.30
2018-03-04T11:19:26.681Z,46.30
2018-03-04T11:21:54.272Z,46.50
2018-03-04T11:24:21.853Z,45.60
2018-03-04T11:26:49.495Z,46.40
2018-03-04T11:29:17.272Z,47.20
2018-03-04T11:31:44.826Z,47.60
2018-03-04T11:34:12.429Z,47.60
2018-03-04T11:36:41.746Z,51.60
2018-03-04T11:39:09.399Z,51.70
2018-03-04T11:41:36.962Z,52.70
2018-03-04T11:44:04.919Z,53.30
2018-03-04T11:46:32.531Z,55.10
2018-03-04T11:49:00.156Z,56.50
2018-03-04T11:51:27.772Z,56.70
2018-03-04T11:53:56.191Z,57.50
2018-03-04T11:56:23.844Z,57.50
2018-03-04T11:58:51.443Z,56.80
2018-03-04T12:01:19.108Z,57.00
2018-03-04T12:03:46.677Z,57.80
2018-03-04T12:06:14.452Z,58.10
2018-03-04T12:08:42.130Z,58.00
2018-03-04T12:11:09.748Z,58.40
2018-03-04T12:13:37.342Z,58.90
2018-03-04T12:16:05.683Z,57.60
2018-03-04T12:18:33.303Z,57.90
2018-03-04T12:21:00.923Z,58.20
2018-03-04T12:23:29.311Z,57.60
2018-03-04T12:25:56.985Z,57.60
2018-03-04T12:28:24.631Z,57.70
2018-03-04T12:30:52.165Z,58.00
2018-03-04T12:33:20.838Z,58.10
2018-03-04T12:35:48.478Z,57.80
2018-03-04T12:38:16.249Z,57.80
2018-03-04T12:40:43.872Z,58.20
2018-03-04T12:43:11.475Z,57.80
2018-03-04T12:45:40.265Z,57.90
2018-03-04T12:48:07.863Z,57.70
2018-03-04T12:50:36.428Z,58.20
2018-03-04T12:53:04.021Z,58.10
2018-03-04T12:55:31.684Z,58.10
2018-03-04T12:57:59.288Z,57.60
2018-03-04T13:00:28.038Z,58.10
2018-03-04T13:02:56.508Z,58.10
2018-03-04T13:05:24.854Z,58.00
2018-03-04T13:07:53.436Z,57.70
2018-03-04T13:10:21.291Z,58.30
2018-03-04T13:12:48.871Z,57.60
2018-03-04T13:15:16.512Z,57.50
2018-03-04T13:17:44.212Z,57.60
2018-03-04T13:20:11.802Z,58.10
2018-03-04T13:22:39.523Z,58.00
2018-03-04T13:25:07.141Z,58.60
2018-03-04T13:27:35.445Z,58.10
2018-03-04T13:30:03.811Z,58.40
2018-03-04T13:32:31.459Z,58.40
2018-03-04T13:34:59.968Z,58.30
2018-03-04T13:37:27.611Z,58.30
2018-03-04T13:39:55.282Z,58.30
2018-03-04T13:42:22.829Z,58.10
2018-03-04T13:44:50.460Z,58.50
2018-03-04T13:47:18.103Z,58.30
2018-03-04T13:49:45.649Z,57.80
2018-03-04T13:52:13.249Z,57.40
2018-03-04T13:54:40.994Z,57.70
2018-03-04T13:57:08.637Z,57.40
2018-03-04T13:59:37.171Z,57.40
2018-03-04T14:02:05.404Z,57.70
2018-03-04T14:04:33.886Z,57.80
2018-03-04T14:07:01.908Z,57.90
2018-03-04T14:09:29.560Z,58.10
2018-03-04T14:11:57.894Z,58.30
2018-03-04T14:14:25.526Z,58.20
2018-03-04T14:16:53.096Z,58.10
2018-03-04T14:19:20.708Z,58.10
2018-03-04T14:21:48.265Z,58.00
2018-03-04T14:24:15.903Z,57.90
2018-03-04T14:26:43.465Z,58.20
2018-03-04T14:29:11.078Z,58.50
2018-03-04T14:31:38.667Z,58.30
2018-03-04T14:34:08.021Z,58.00
2018-03-04T14:36:36.516Z,58.00
2018-03-04T14:39:04.111Z,58.00
2018-03-04T14:41:31.665Z,57.90
2018-03-04T14:43:59.423Z,57.00
2018-03-04T14:46:27.745Z,57.20
2018-03-04T14:48:55.390Z,57.10
2018-03-04T14:51:22.970Z,57.60
2018-03-04T14:53:50.531Z,57.50
2018-03-04T14:56:18.141Z,57.60
2018-03-04T14:58:46.485Z,58.20
2018-03-04T15:01:14.137Z,58.30
2018-03-04T15:03:42.530Z,59.00
2018-03-04T15:06:10.208Z,58.90
2018-03-04T15:08:37.799Z,58.90
2018-03-04T15:11:05.911Z,58.90
2018-03-04T15:13:34.244Z,59.30
2018-03-04T15:16:02.598Z,59.30
2018-03-04T15:18:30.219Z,59.30
2018-03-04T15:20:58.718Z,59.00
2018-03-04T15:23:26.331Z,59.00
2018-03-04T15:25:54.003Z,58.60
2018-03-04T15:28:22.331Z,58.60
2018-03-04T15:30:49.962Z,58.60
2018-03-04T15:33:17.586Z,58.30
2018-03-04T15:35:45.349Z,58.50
2018-03-04T15:38:12.962Z,58.20
2018-03-04T15:40:40.511Z,58.20
2018-03-04T15:43:08.105Z,58.50
2018-03-04T15:45:35.780Z,58.70
2018-03-04T15:48:03.396Z,59.10
2018-03-04T15:50:30.973Z,59.70
2018-03-04T15:52:58.622Z,59.80
2018-03-04T15:55:26.971Z,60.40
2018-03-04T15:57:54.538Z,60.50
2018-03-04T16:00:22.216Z,60.70
2018-03-04T16:02:50.044Z,61.10
2018-03-04T16:05:17.629Z,60.30
2018-03-04T16:07:45.203Z,60.50
2018-03-04T16:10:12.808Z,60.50
2018-03-04T16:12:40.414Z,60.50
2018-03-04T16:15:08.016Z,60.00
2018-03-04T16:17:37.377Z,60.40
2018-03-04T16:20:05.711Z,60.30
2018-03-04T16:22:33.312Z,60.10
2018-03-04T16:25:01.717Z,60.20
2018-03-04T16:27:30.377Z,60.10
2018-03-04T16:29:57.954Z,60.00
2018-03-04T16:32:25.566Z,60.70
2018-03-04T16:34:53.118Z,60.60
2018-03-04T16:37:21.652Z,61.10
2018-03-04T16:39:49.312Z,61.20
2018-03-04T16:42:16.982Z,61.50
2018-03-04T16:44:44.556Z,61.90
2018-03-04T16:47:12.149Z,62.00
2018-03-04T16:49:39.745Z,62.20
2018-03-04T16:52:07.353Z,62.40
2018-03-04T16:54:35.878Z,62.60
2018-03-04T16:57:03.503Z,62.80
2018-03-04T16:59:31.850Z,64.00
2018-03-04T17:02:00.246Z,64.50
2018-03-04T17:04:27.858Z,64.60
2018-03-04T17:06:56.430Z,64.90
2018-03-04T17:09:24.770Z,65.00
2018-03-04T17:11:53.158Z,66.30
2018-03-04T17:14:20.716Z,65.70
2018-03-04T17:16:49.119Z,66.00
2018-03-04T17:19:16.784Z,66.00
2018-03-04T17:21:45.136Z,66.10
2018-03-04T17:24:13.478Z,66.10
2018-03-04T17:26:41.179Z,66.10
2018-03-04T17:29:08.773Z,65.90
2018-03-04T17:31:37.449Z,66.20
2018-03-04T17:34:09.712Z,65.10
2018-03-04T17:36:37.397Z,65.10
2018-03-04T17:39:05.770Z,65.00
2018-03-04T17:41:33.384Z,64.70
2018-03-04T17:44:01.043Z,64.30
2018-03-04T17:46:28.606Z,64.20
2018-03-04T17:48:56.307Z,64.00
2018-03-04T17:51:23.861Z,63.70
2018-03-04T17:53:51.824Z,63.80
2018-03-04T17:56:19.387Z,63.60
2018-03-04T17:58:47.007Z,63.60
2018-03-04T18:01:14.733Z,63.50
2018-03-04T18:03:42.399Z,63.50
2018-03-04T18:06:10.059Z,63.50
2018-03-04T18:08:37.663Z,63.70
2018-03-04T18:11:06.105Z,64.00
2018-03-04T18:13:33.739Z,64.10
2018-03-04T18:16:01.335Z,64.00
2018-03-04T18:18:28.957Z,64.00
2018-03-04T18:20:56.573Z,63.90
2018-03-04T18:23:24.142Z,64.00
2018-03-04T18:25:52.502Z,64.10
2018-03-04T18:28:20.079Z,64.80
2018-03-04T18:30:48.494Z,64.40
2018-03-04T18:33:16.099Z,64.40
2018-03-04T18:35:43.721Z,64.50
2018-03-04T18:38:11.340Z,64.50
2018-03-04T18:40:40.204Z,64.50
2018-03-04T18:43:07.795Z,64.40
2018-03-04T18:45:36.247Z,64.30
2018-03-04T18:48:04.690Z,64.10
2018-03-04T18:50:33.237Z,64.30
2018-03-04T18:53:00.819Z,64.30
2018-03-04T18:55:29.225Z,64.30
2018-03-04T18:57:56.936Z,64.30
2018-03-04T19:00:25.305Z,64.70
2018-03-04T19:02:53.665Z,64.70
2018-03-04T19:05:21.956Z,64.70
2018-03-04T19:07:49.600Z,64.50
2018-03-04T19:10:17.156Z,65.00
2018-03-04T19:12:45.535Z,64.90
2018-03-04T19:15:13.160Z,64.90
2018-03-04T19:17:41.498Z,65.10
2018-03-04T19:20:09.104Z,65.10
2018-03-04T19:22:37.562Z,65.10
2018-03-04T19:25:05.482Z,65.10
2018-03-04T19:27:33.842Z,65.90
2018-03-04T19:30:01.451Z,65.90
2018-03-04T19:32:29.038Z,65.90
2018-03-04T19:34:57.693Z,66.20
2018-03-04T19:37:25.283Z,66.00
2018-03-04T19:39:53.382Z,65.50
2018-03-04T19:42:21.780Z,65.90
2018-03-04T19:45:03.237Z,65.70
2018-03-04T19:47:30.854Z,65.30
2018-03-04T19:49:59.234Z,65.20
2018-03-04T19:52:26.890Z,65.50
2018-03-04T19:54:54.471Z,65.40
2018-03-04T19:57:22.676Z,66.00
2018-03-04T19:59:50.248Z,65.50
2018-03-04T20:02:18.005Z,64.90
2018-03-04T20:04:45.530Z,65.00
2018-03-04T20:07:13.132Z,65.00
2018-03-04T20:09:40.695Z,65.40
2018-03-04T20:12:08.344Z,65.50
2018-03-04T20:14:36.042Z,65.80
2018-03-04T20:17:03.669Z,65.50
2018-03-04T20:19:31.303Z,65.50
2018-03-04T20:21:59.943Z,65.50
2018-03-04T20:24:27.562Z,65.80
2018-03-04T20:26:56.125Z,65.50
2018-03-04T20:29:23.703Z,65.50
2018-03-04T20:31:51.947Z,65.40
2018-03-04T20:34:19.550Z,65.60
2018-03-04T20:36:47.201Z,65.60
2018-03-04T20:39:15.569Z,65.80
2018-03-04T20:41:43.921Z,65.60
2018-03-04T20:44:12.276Z,66.20
2018-03-04T20:46:39.840Z,66.20
2018-03-04T20:49:08.225Z,67.00
2018-03-04T20:51:35.898Z,66.90
2018-03-04T20:54:03.503Z,67.10
2018-03-04T20:56:31.510Z,67.40
2018-03-04T20:58:59.085Z,67.60
2018-03-04T21:01:26.903Z,67.50
2018-03-04T21:03:55.321Z,67.30
2018-03-04T21:06:23.507Z,67.40
2018-03-04T21:08:51.812Z,66.70
2018-03-04T21:11:19.390Z,66.70
2018-03-04T21:13:47.834Z,66.50
2018-03-04T21:16:15.428Z,66.40
2018-03-04T21:18:43.778Z,66.80
2018-03-04T21:21:12.142Z,66.80
2018-03-04T21:23:40.535Z,67.00
2018-03-04T21:26:08.187Z,67.10
2018-03-04T21:28:35.763Z,67.10
2018-03-04T21:31:03.332Z,66.90
2018-03-04T21:33:31.871Z,67.10
2018-03-04T21:36:00.375Z,67.20
2018-03-04T21:38:28.725Z,67.50
2018-03-04T21:40:56.404Z,67.40
2018-03-04T21:43:23.992Z,67.10
2018-03-04T21:45:51.636Z,67.50
2018-03-04T21:48:19.223Z,67.40
2018-03-04T21:51:00.211Z,67.30
2018-03-04T21:53:27.820Z,67.10
2018-03-04T21:55:55.401Z,67.00
2018-03-04T21:58:22.974Z,66.70
2018-03-04T22:00:51.381Z,66.90
2018-03-04T22:03:19.745Z,66.70
2018-03-04T22:05:48.177Z,66.70
2018-03-04T22:08:15.767Z,66.70
2018-03-04T22:10:44.142Z,66.70
2018-03-04T22:13:11.760Z,66.70
2018-03-04T22:15:39.384Z,66.80
2018-03-04T22:18:08.477Z,66.60
2018-03-04T22:20:36.095Z,66.70
2018-03-04T22:23:03.680Z,66.70
2018-03-04T22:25:32.984Z,66.50
2018-03-04T22:28:00.594Z,67.10
2018-03-04T22:30:28.211Z,66.20
2018-03-04T22:32:55.877Z,66.00
2018-03-04T22:35:23.876Z,65.40
2018-03-04T22:37:52.239Z,65.20
2018-03-04T22:40:20.650Z,64.90
2018-03-04T22:42:48.240Z,64.90
2018-03-04T22:45:16.755Z,64.90
2018-03-04T22:47:45.072Z,65.00
2018-03-04T22:50:13.440Z,65.00
2018-03-04T22:52:41.021Z,65.00
2018-03-04T22:55:10.533Z,64.90
2018-03-04T22:57:39.571Z,64.80
2018-03-04T23:00:07.855Z,64.70
2018-03-04T23:02:35.463Z,65.00
2018-03-04T23:05:03.371Z,65.00
2018-03-04T23:07:30.965Z,65.30
2018-03-04T23:09:58.625Z,65.60
2018-03-04T23:12:26.996Z,65.60
2018-03-04T23:14:55.394Z,65.80
2018-03-04T23:17:23.769Z,65.90
2018-03-04T23:19:51.486Z,65.80
2018-03-04T23:22:20.018Z,66.30
2018-03-04T23:24:47.646Z,66.40
2018-03-04T23:27:15.252Z,66.90
2018-03-04T23:29:42.801Z,66.90
2018-03-04T23:32:11.186Z,67.10
2018-03-04T23:34:39.342Z,67.10
2018-03-04T23:37:08.319Z,67.20
2018-03-04T23:39:35.927Z,67.20
2018-03-04T23:42:03.502Z,67.10
2018-03-04T23:44:31.863Z,67.10
2018-03-04T23:47:00.206Z,67.30
2018-03-04T23:49:27.811Z,67.20
2018-03-04T23:51:55.460Z,67.20
2018-03-04T23:54:23.045Z,67.20
2018-03-04T23:56:50.662Z,67.20
2018-03-04T23:59:18.330Z,67.40
